Time;durP1;ratioP1;P1;durP2;ratioP2;P2;SDS_P1;SDS_P2;PMS_P1;PMS_P2;Temp;Humidity;BMP_temperature;BMP_pressure;BME280_temperature;BME280_humidity;BME280_pressure;Samples;Min_cycle;Max_cycle;Signal;HPM_P1;HPM_P2
2024/01/17 00:00:49;;;;;;;11.32;10.18;;;;;;;;;;4919000;29;20072;-59
2024/01/17 00:03:14;;;;;;;13.43;10.27;;;;;;;;;;4928960;29;20123;-59
2024/01/17 00:05:40;;;;;;;15.90;11.60;;;;;;;;;;4921854;29;20063;-60
2024/01/17 00:08:05;;;;;;;16.80;12.82;;;;;;;;;;4925736;29;20067;-60
2024/01/17 00:10:30;;;;;;;17.40;12.55;;;;;;;;;;4935634;29;20062;-57
2024/01/17 00:12:56;;;;;;;14.02;11.23;;;;;;;;;;4938491;29;20048;-59
2024/01/17 00:15:22;;;;;;;13.65;11.05;;;;;;;;;;4938867;29;20055;-59
2024/01/17 00:17:48;;;;;;;16.48;13.18;;;;;;;;;;4925281;29;20070;-59
2024/01/17 00:20:13;;;;;;;19.42;14.13;;;;;;;;;;4937760;29;20042;-58
2024/01/17 00:22:39;;;;;;;22.05;16.05;;;;;;;;;;4929225;28;20455;-56
2024/01/17 00:25:06;;;;;;;23.08;16.05;;;;;;;;;;4920152;29;20427;-59
2024/01/17 00:27:32;;;;;;;17.83;12.55;;;;;;;;;;4924344;29;20036;-60
2024/01/17 00:29:57;;;;;;;12.20;8.77;;;;;;;;;;4938091;29;20055;-59
2024/01/17 00:32:26;;;;;;;12.57;10.25;;;;;;;;;;4934960;28;20044;-55
2024/01/17 00:34:51;;;;;;;11.75;9.63;;;;;;;;;;4940076;29;20044;-60
2024/01/17 00:37:17;;;;;;;12.63;10.95;;;;;;;;;;4943736;28;21212;-59
2024/01/17 00:39:42;;;;;;;11.82;10.25;;;;;;;;;;4937587;29;20068;-58
2024/01/17 00:42:08;;;;;;;15.63;11.20;;;;;;;;;;4934741;28;20768;-58
2024/01/17 00:44:33;;;;;;;13.57;11.10;;;;;;;;;;4939940;29;20478;-58
2024/01/17 00:46:59;;;;;;;11.05;8.07;;;;;;;;;;4936305;29;20036;-56
2024/01/17 00:49:25;;;;;;;10.43;7.88;;;;;;;;;;4935045;29;20019;-59
2024/01/17 00:51:50;;;;;;;9.38;8.25;;;;;;;;;;4937473;28;20049;-58
2024/01/17 00:54:16;;;;;;;10.65;7.90;;;;;;;;;;4936707;29;20055;-59
2024/01/17 00:56:41;;;;;;;10.18;8.45;;;;;;;;;;4932458;28;20518;-59
2024/01/17 00:59:07;;;;;;;9.98;8.93;;;;;;;;;;4917126;29;20040;-58
2024/01/17 01:01:32;;;;;;;11.48;8.10;;;;;;;;;;4916840;29;20071;-58
2024/01/17 01:03:58;;;;;;;9.00;7.10;;;;;;;;;;4920574;29;20526;-60
2024/01/17 01:06:23;;;;;;;8.38;7.57;;;;;;;;;;4916918;29;20684;-59
2024/01/17 01:08:49;;;;;;;9.27;6.78;;;;;;;;;;4937409;29;20023;-58
2024/01/17 01:11:14;;;;;;;9.25;7.53;;;;;;;;;;4936003;29;20067;-59
2024/01/17 01:13:40;;;;;;;7.75;6.95;;;;;;;;;;4936631;29;20071;-59
2024/01/17 01:16:06;;;;;;;7.03;5.65;;;;;;;;;;4941216;29;20379;-60
2024/01/17 01:18:31;;;;;;;7.03;5.40;;;;;;;;;;4936112;29;20048;-59
2024/01/17 01:20:57;;;;;;;10.65;7.45;;;;;;;;;;4942836;29;20031;-59
2024/01/17 01:23:24;;;;;;;9.02;6.68;;;;;;;;;;4940885;29;20087;-59
2024/01/17 01:25:52;;;;;;;6.53;5.93;;;;;;;;;;4938848;29;20027;-58
2024/01/17 01:28:17;;;;;;;9.27;6.15;;;;;;;;;;4939046;29;20032;-60
2024/01/17 01:30:43;;;;;;;7.30;5.63;;;;;;;;;;4939683;29;20039;-57
2024/01/17 01:33:08;;;;;;;8.40;6.05;;;;;;;;;;4935365;29;20055;-58
2024/01/17 01:35:34;;;;;;;7.50;5.25;;;;;;;;;;4944815;29;20102;-57
2024/01/17 01:37:59;;;;;;;5.68;4.90;;;;;;;;;;4944818;28;20498;-59
2024/01/17 01:40:24;;;;;;;6.07;4.88;;;;;;;;;;4942649;29;20068;-59
2024/01/17 01:42:50;;;;;;;5.05;4.32;;;;;;;;;;4942660;29;20071;-57
2024/01/17 01:45:15;;;;;;;6.43;4.20;;;;;;;;;;4938818;28;20028;-60
2024/01/17 01:47:42;;;;;;;6.35;4.82;;;;;;;;;;4932233;29;20159;-55
2024/01/17 01:50:11;;;;;;;4.60;3.92;;;;;;;;;;4937665;29;20043;-57
2024/01/17 01:52:39;;;;;;;6.50;4.43;;;;;;;;;;4946534;28;20122;-57
2024/01/17 01:55:06;;;;;;;6.72;4.80;;;;;;;;;;4933902;29;20028;-59
2024/01/17 01:57:35;;;;;;;5.70;3.72;;;;;;;;;;4948210;28;20406;-58
2024/01/17 02:00:02;;;;;;;5.38;4.05;;;;;;;;;;4941916;29;20052;-59
2024/01/17 02:02:28;;;;;;;4.78;3.88;;;;;;;;;;4949334;28;20051;-58
2024/01/17 02:04:53;;;;;;;4.53;3.65;;;;;;;;;;4950207;28;20043;-60
2024/01/17 02:07:21;;;;;;;5.78;4.30;;;;;;;;;;4935730;29;20446;-59
2024/01/17 02:09:47;;;;;;;5.30;4.30;;;;;;;;;;4939902;29;20035;-56
2024/01/17 02:12:13;;;;;;;4.70;3.33;;;;;;;;;;4935628;29;20055;-58
2024/01/17 02:14:40;;;;;;;4.95;3.83;;;;;;;;;;4940002;29;20154;-58
2024/01/17 02:17:07;;;;;;;4.35;4.00;;;;;;;;;;4939151;29;20054;-57
2024/01/17 02:19:32;;;;;;;5.03;3.50;;;;;;;;;;4949664;29;20446;-58
2024/01/17 02:21:58;;;;;;;4.65;3.00;;;;;;;;;;4932455;29;20091;-59
2024/01/17 02:24:23;;;;;;;3.65;2.72;;;;;;;;;;4922207;29;20115;-59
2024/01/17 02:26:49;;;;;;;3.53;2.90;;;;;;;;;;4920794;29;20047;-59
2024/01/17 02:29:15;;;;;;;4.03;3.55;;;;;;;;;;4917414;29;20029;-59
2024/01/17 02:31:41;;;;;;;3.33;2.50;;;;;;;;;;4923078;29;20071;-59
2024/01/17 02:34:07;;;;;;;4.10;2.80;;;;;;;;;;4937592;29;20466;-58
2024/01/17 02:36:32;;;;;;;4.32;2.85;;;;;;;;;;4945366;28;20034;-59
2024/01/17 02:38:57;;;;;;;3.80;2.88;;;;;;;;;;4934016;29;20100;-59
2024/01/17 02:41:23;;;;;;;3.05;2.45;;;;;;;;;;4943204;28;20544;-58
2024/01/17 02:43:48;;;;;;;3.92;2.55;;;;;;;;;;4938471;29;20031;-56
2024/01/17 02:46:13;;;;;;;3.33;1.92;;;;;;;;;;4938201;29;20024;-59
2024/01/17 02:48:39;;;;;;;2.72;2.08;;;;;;;;;;4911995;29;20037;-59
2024/01/17 02:51:05;;;;;;;3.45;2.33;;;;;;;;;;4919948;29;20096;-58
2024/01/17 02:53:30;;;;;;;3.15;2.47;;;;;;;;;;4929051;29;20107;-59
2024/01/17 02:55:55;;;;;;;5.05;4.72;;;;;;;;;;4908964;29;20107;-57
2024/01/17 02:58:21;;;;;;;3.83;3.15;;;;;;;;;;4934402;29;20071;-57
2024/01/17 03:00:46;;;;;;;4.78;2.80;;;;;;;;;;4940250;29;20091;-59
2024/01/17 03:03:12;;;;;;;3.58;3.10;;;;;;;;;;4934881;29;20032;-58
2024/01/17 03:05:37;;;;;;;3.85;3.13;;;;;;;;;;4929790;29;20093;-57
2024/01/17 03:08:04;;;;;;;3.97;2.78;;;;;;;;;;4937552;28;20071;-56
2024/01/17 03:10:30;;;;;;;3.92;2.20;;;;;;;;;;4936926;29;20027;-59
2024/01/17 03:12:56;;;;;;;3.47;2.53;;;;;;;;;;4923040;28;20037;-58
2024/01/17 03:15:22;;;;;;;3.88;2.97;;;;;;;;;;4915823;29;20052;-58
2024/01/17 03:17:47;;;;;;;3.78;2.40;;;;;;;;;;4930068;29;20039;-59
2024/01/17 03:20:13;;;;;;;4.03;1.95;;;;;;;;;;4930998;29;20517;-59
2024/01/17 03:22:39;;;;;;;3.72;3.42;;;;;;;;;;4927185;29;20499;-59
2024/01/17 03:25:06;;;;;;;4.50;2.53;;;;;;;;;;4919638;29;20112;-60
2024/01/17 03:27:31;;;;;;;2.53;2.08;;;;;;;;;;4925044;29;20067;-58
2024/01/17 03:29:56;;;;;;;5.13;2.45;;;;;;;;;;4939198;29;20032;-58
2024/01/17 03:32:22;;;;;;;3.38;2.20;;;;;;;;;;4934806;29;20040;-59
2024/01/17 03:34:47;;;;;;;3.88;2.50;;;;;;;;;;4920673;29;20024;-59
2024/01/17 03:37:13;;;;;;;3.40;2.30;;;;;;;;;;4920202;29;20384;-58
2024/01/17 03:39:42;;;;;;;3.97;2.45;;;;;;;;;;4918693;29;20032;-56
2024/01/17 03:42:08;;;;;;;3.55;1.95;;;;;;;;;;4919233;29;20514;-60
2024/01/17 03:44:33;;;;;;;4.90;2.58;;;;;;;;;;4919858;29;20394;-57
2024/01/17 03:46:58;;;;;;;3.67;2.70;;;;;;;;;;4918955;29;20036;-59
2024/01/17 03:49:24;;;;;;;3.38;2.65;;;;;;;;;;4919124;29;20031;-56
2024/01/17 03:51:49;;;;;;;3.92;2.40;;;;;;;;;;4919552;29;20394;-59
2024/01/17 03:54:14;;;;;;;3.45;2.47;;;;;;;;;;4918764;29;20059;-58
2024/01/17 03:56:40;;;;;;;4.07;2.55;;;;;;;;;;4929737;29;20032;-57
2024/01/17 03:59:06;;;;;;;3.78;2.53;;;;;;;;;;4936371;29;20062;-57
2024/01/17 04:01:31;;;;;;;5.20;3.22;;;;;;;;;;4934944;29;20035;-59
2024/01/17 04:03:57;;;;;;;6.40;3.40;;;;;;;;;;4946473;29;20475;-57
2024/01/17 04:06:23;;;;;;;6.70;3.63;;;;;;;;;;4947600;29;20386;-59
2024/01/17 04:08:48;;;;;;;4.03;2.60;;;;;;;;;;4915191;29;20020;-56
2024/01/17 04:11:13;;;;;;;5.85;3.88;;;;;;;;;;4914054;29;20165;-57
2024/01/17 04:13:42;;;;;;;3.45;3.13;;;;;;;;;;4918356;29;20055;-58
2024/01/17 04:16:08;;;;;;;3.75;2.78;;;;;;;;;;4915880;29;20063;-58
2024/01/17 04:18:35;;;;;;;4.60;3.05;;;;;;;;;;4917860;29;20751;-58
2024/01/17 04:21:01;;;;;;;4.22;3.38;;;;;;;;;;4927852;29;20036;-59
2024/01/17 04:23:27;;;;;;;4.90;3.53;;;;;;;;;;4917350;29;20050;-59
2024/01/17 04:25:52;;;;;;;6.00;3.83;;;;;;;;;;4915603;29;20032;-57
2024/01/17 04:28:18;;;;;;;4.50;3.17;;;;;;;;;;4916931;29;20084;-58
2024/01/17 04:30:44;;;;;;;4.40;4.00;;;;;;;;;;4917046;29;20036;-59
2024/01/17 04:33:09;;;;;;;3.80;3.05;;;;;;;;;;4925651;29;20090;-57
2024/01/17 04:35:35;;;;;;;6.30;2.92;;;;;;;;;;4916557;29;20028;-58
2024/01/17 04:38:00;;;;;;;3.60;3.28;;;;;;;;;;4917842;29;20044;-56
2024/01/17 04:40:25;;;;;;;5.18;4.68;;;;;;;;;;4917698;29;20545;-58
2024/01/17 04:42:51;;;;;;;6.18;3.85;;;;;;;;;;4917232;29;20491;-58
2024/01/17 04:45:19;;;;;;;3.90;3.50;;;;;;;;;;4915881;29;20459;-58
2024/01/17 04:47:44;;;;;;;6.80;3.83;;;;;;;;;;4918596;29;20565;-54
2024/01/17 04:50:13;;;;;;;5.38;4.13;;;;;;;;;;4917238;29;20024;-57
2024/01/17 04:52:39;;;;;;;2.83;2.55;;;;;;;;;;4912276;29;20071;-56
2024/01/17 04:55:05;;;;;;;4.70;3.40;;;;;;;;;;4920498;29;20024;-56
2024/01/17 04:57:31;;;;;;;4.88;3.10;;;;;;;;;;4936048;29;20046;-55
2024/01/17 04:59:56;;;;;;;3.90;2.88;;;;;;;;;;4931861;29;20485;-55
2024/01/17 05:02:21;;;;;;;5.95;2.83;;;;;;;;;;4914851;29;20043;-57
2024/01/17 05:04:47;;;;;;;4.45;3.45;;;;;;;;;;4922657;29;20087;-57
2024/01/17 05:07:12;;;;;;;5.03;3.80;;;;;;;;;;4920627;29;20048;-55
2024/01/17 05:09:38;;;;;;;3.55;3.20;;;;;;;;;;4917683;29;20043;-54
2024/01/17 05:12:04;;;;;;;3.80;3.10;;;;;;;;;;4920700;29;20071;-53
2024/01/17 05:14:29;;;;;;;5.00;3.03;;;;;;;;;;4919986;29;20494;-51
2024/01/17 05:16:55;;;;;;;6.65;3.35;;;;;;;;;;4921891;29;20040;-49
2024/01/17 05:19:20;;;;;;;3.85;2.88;;;;;;;;;;4923792;29;20036;-48
2024/01/17 05:21:46;;;;;;;4.90;3.63;;;;;;;;;;4920991;29;20103;-54
2024/01/17 05:24:11;;;;;;;4.68;3.28;;;;;;;;;;4920790;29;20051;-51
2024/01/17 05:26:36;;;;;;;3.85;3.50;;;;;;;;;;4924156;29;20380;-49
2024/01/17 05:29:02;;;;;;;3.80;3.08;;;;;;;;;;4925461;29;20488;-51
2024/01/17 05:31:27;;;;;;;3.25;2.80;;;;;;;;;;4920847;29;20062;-50
2024/01/17 05:33:53;;;;;;;4.72;4.32;;;;;;;;;;4924352;29;20114;-51
2024/01/17 05:36:18;;;;;;;6.38;3.90;;;;;;;;;;4921722;29;20024;-50
2024/01/17 05:38:44;;;;;;;4.20;3.67;;;;;;;;;;4918741;29;20043;-54
2024/01/17 05:41:09;;;;;;;4.90;3.53;;;;;;;;;;4921443;29;20035;-53
2024/01/17 05:43:35;;;;;;;4.88;3.95;;;;;;;;;;4933408;29;20036;-56
2024/01/17 05:46:00;;;;;;;4.30;3.70;;;;;;;;;;4939200;29;20027;-53
2024/01/17 05:48:25;;;;;;;4.90;3.88;;;;;;;;;;4921105;28;20105;-56
2024/01/17 05:50:51;;;;;;;4.88;3.58;;;;;;;;;;4919421;29;20413;-52
2024/01/17 05:53:16;;;;;;;3.97;3.55;;;;;;;;;;4912102;29;20045;-55
2024/01/17 05:55:42;;;;;;;4.53;2.83;;;;;;;;;;4920717;29;20032;-53
2024/01/17 05:58:09;;;;;;;4.88;4.40;;;;;;;;;;4916715;29;20435;-52
2024/01/17 06:00:34;;;;;;;6.50;3.92;;;;;;;;;;4918648;29;20111;-53
2024/01/17 06:03:00;;;;;;;7.05;3.40;;;;;;;;;;4921462;29;20068;-55
2024/01/17 06:05:25;;;;;;;8.10;3.83;;;;;;;;;;4916670;29;20028;-54
2024/01/17 06:07:51;;;;;;;6.13;4.35;;;;;;;;;;4919170;29;20068;-54
2024/01/17 06:10:17;;;;;;;6.28;3.42;;;;;;;;;;4920094;29;20032;-55
2024/01/17 06:12:42;;;;;;;4.63;3.58;;;;;;;;;;4920488;29;20122;-54
2024/01/17 06:15:09;;;;;;;4.50;3.60;;;;;;;;;;4913004;29;20040;-56
2024/01/17 06:17:35;;;;;;;4.07;3.10;;;;;;;;;;4917860;29;20108;-56
2024/01/17 06:20:01;;;;;;;4.43;3.42;;;;;;;;;;4912152;29;20827;-54
2024/01/17 06:22:26;;;;;;;6.10;4.88;;;;;;;;;;4917625;29;20487;-53
2024/01/17 06:24:52;;;;;;;4.85;4.38;;;;;;;;;;4914054;29;20131;-55
2024/01/17 06:27:18;;;;;;;4.78;3.85;;;;;;;;;;4915224;29;20071;-55
2024/01/17 06:29:44;;;;;;;4.93;4.10;;;;;;;;;;4917487;29;20033;-56
2024/01/17 06:32:10;;;;;;;4.35;3.70;;;;;;;;;;4917330;29;20046;-56
2024/01/17 06:34:36;;;;;;;5.35;4.57;;;;;;;;;;4917804;29;20027;-54
2024/01/17 06:37:03;;;;;;;5.22;4.18;;;;;;;;;;4912808;29;20123;-56
2024/01/17 06:39:29;;;;;;;4.72;3.97;;;;;;;;;;4920228;29;20038;-56
2024/01/17 06:41:54;;;;;;;5.78;4.70;;;;;;;;;;4918037;29;20122;-56
2024/01/17 06:44:20;;;;;;;6.00;4.03;;;;;;;;;;4915262;29;20072;-57
2024/01/17 06:46:45;;;;;;;4.68;3.58;;;;;;;;;;4921744;29;20115;-56
2024/01/17 06:49:11;;;;;;;4.88;4.05;;;;;;;;;;4938769;29;20552;-55
2024/01/17 06:51:36;;;;;;;4.70;3.55;;;;;;;;;;4938165;29;20651;-55
2024/01/17 06:54:01;;;;;;;6.45;4.55;;;;;;;;;;4930876;29;20140;-57
2024/01/17 06:56:27;;;;;;;5.10;3.53;;;;;;;;;;4937963;29;20094;-54
2024/01/17 06:58:52;;;;;;;5.60;4.95;;;;;;;;;;4919927;29;20028;-56
2024/01/17 07:01:18;;;;;;;7.70;4.93;;;;;;;;;;4919127;29;20032;-56
2024/01/17 07:03:43;;;;;;;4.63;3.80;;;;;;;;;;4931697;29;20031;-57
2024/01/17 07:06:10;;;;;;;9.00;4.18;;;;;;;;;;4935646;29;20498;-56
2024/01/17 07:08:35;;;;;;;6.35;4.45;;;;;;;;;;4935787;28;20042;-54
2024/01/17 07:11:01;;;;;;;5.53;4.00;;;;;;;;;;4944342;29;20031;-56
2024/01/17 07:13:26;;;;;;;5.65;4.35;;;;;;;;;;4937181;29;20493;-58
2024/01/17 07:15:52;;;;;;;5.75;3.65;;;;;;;;;;4938509;29;20043;-56
2024/01/17 07:18:17;;;;;;;7.15;4.70;;;;;;;;;;4941576;28;20059;-52
2024/01/17 07:20:42;;;;;;;8.98;5.80;;;;;;;;;;4934717;29;20039;-55
2024/01/17 07:23:08;;;;;;;4.93;3.80;;;;;;;;;;4935596;28;20102;-54
2024/01/17 07:25:34;;;;;;;5.15;4.65;;;;;;;;;;4939619;29;20061;-56
2024/01/17 07:27:59;;;;;;;8.98;7.10;;;;;;;;;;4937049;29;20490;-55
2024/01/17 07:30:26;;;;;;;8.48;4.53;;;;;;;;;;4936909;29;20032;-54
2024/01/17 07:32:51;;;;;;;7.90;5.45;;;;;;;;;;4936888;29;20035;-54
2024/01/17 07:35:17;;;;;;;6.03;4.30;;;;;;;;;;4937466;29;20079;-56
2024/01/17 07:37:42;;;;;;;6.93;5.05;;;;;;;;;;4932494;28;20129;-55
2024/01/17 07:40:09;;;;;;;5.30;4.20;;;;;;;;;;4939878;29;20067;-56
2024/01/17 07:42:34;;;;;;;5.07;3.30;;;;;;;;;;4935093;29;20043;-53
2024/01/17 07:45:00;;;;;;;6.60;4.57;;;;;;;;;;4937235;28;20026;-58
2024/01/17 07:47:25;;;;;;;4.38;3.47;;;;;;;;;;4933257;29;20771;-53
2024/01/17 07:49:50;;;;;;;6.00;4.75;;;;;;;;;;4936923;29;20102;-57
2024/01/17 07:52:16;;;;;;;6.35;4.60;;;;;;;;;;4935565;28;20039;-54
2024/01/17 07:54:41;;;;;;;5.07;3.85;;;;;;;;;;4929249;29;20035;-55
2024/01/17 07:57:07;;;;;;;6.00;4.43;;;;;;;;;;4934343;29;20047;-57
2024/01/17 07:59:32;;;;;;;6.00;4.25;;;;;;;;;;4934602;29;20118;-55
2024/01/17 08:01:59;;;;;;;9.00;5.15;;;;;;;;;;4935095;29;20048;-54
2024/01/17 08:04:24;;;;;;;5.70;4.10;;;;;;;;;;4936686;29;20446;-54
2024/01/17 08:06:50;;;;;;;5.97;3.95;;;;;;;;;;4933770;29;20036;-57
2024/01/17 08:09:21;;;;;;;4.85;3.40;;;;;;;;;;4938545;29;20027;-57
2024/01/17 08:11:58;;;;;;;5.25;4.68;;;;;;;;;;4932539;29;20040;-56
2024/01/17 08:14:24;;;;;;;6.95;3.80;;;;;;;;;;4932242;29;20059;-53
2024/01/17 08:16:50;;;;;;;4.63;4.22;;;;;;;;;;4936805;29;20040;-54
2024/01/17 08:19:17;;;;;;;4.43;3.90;;;;;;;;;;4939845;29;20043;-56
2024/01/17 08:21:42;;;;;;;4.22;3.30;;;;;;;;;;4936427;29;20122;-56
2024/01/17 08:24:08;;;;;;;4.47;3.30;;;;;;;;;;4925942;29;20102;-56
2024/01/17 08:26:33;;;;;;;4.30;2.65;;;;;;;;;;4934145;29;20402;-56
2024/01/17 08:29:00;;;;;;;6.97;4.15;;;;;;;;;;4912612;29;20071;-57
2024/01/17 08:31:25;;;;;;;6.50;4.00;;;;;;;;;;4908305;29;20059;-57
2024/01/17 08:33:51;;;;;;;5.88;5.07;;;;;;;;;;4910200;29;20051;-55
2024/01/17 08:36:16;;;;;;;4.65;2.90;;;;;;;;;;4916063;29;20028;-54
2024/01/17 08:38:42;;;;;;;4.32;3.58;;;;;;;;;;4927374;29;20044;-54
2024/01/17 08:41:08;;;;;;;4.35;2.65;;;;;;;;;;4934623;29;20038;-55
2024/01/17 08:43:35;;;;;;;7.07;3.42;;;;;;;;;;4927296;29;20043;-56
2024/01/17 08:46:01;;;;;;;5.18;3.53;;;;;;;;;;4932396;29;20522;-54
2024/01/17 08:48:27;;;;;;;5.30;3.30;;;;;;;;;;4931409;28;20035;-57
2024/01/17 08:50:52;;;;;;;5.53;4.13;;;;;;;;;;4930890;29;20528;-56
2024/01/17 08:53:18;;;;;;;5.75;3.85;;;;;;;;;;4930401;29;20106;-55
2024/01/17 08:55:43;;;;;;;6.60;4.05;;;;;;;;;;4933904;29;20508;-55
2024/01/17 08:58:09;;;;;;;4.03;3.35;;;;;;;;;;4933805;29;20036;-55
2024/01/17 09:00:34;;;;;;;4.93;3.38;;;;;;;;;;4934276;29;20028;-54
2024/01/17 09:02:59;;;;;;;5.40;3.17;;;;;;;;;;4930144;29;20056;-53
2024/01/17 09:05:25;;;;;;;4.28;3.72;;;;;;;;;;4931872;29;20529;-55
2024/01/17 09:07:50;;;;;;;4.85;3.50;;;;;;;;;;4933675;29;20051;-56
2024/01/17 09:10:17;;;;;;;4.60;3.85;;;;;;;;;;4936080;29;20034;-55
2024/01/17 09:12:45;;;;;;;7.72;4.60;;;;;;;;;;4932709;29;20032;-55
2024/01/17 09:15:11;;;;;;;5.22;3.33;;;;;;;;;;4932355;29;20055;-57
2024/01/17 09:17:36;;;;;;;4.47;4.07;;;;;;;;;;4931455;29;20095;-55
2024/01/17 09:20:03;;;;;;;6.88;3.92;;;;;;;;;;4931304;29;20027;-58
2024/01/17 09:22:29;;;;;;;4.70;3.83;;;;;;;;;;4927414;29;20096;-56
2024/01/17 09:24:54;;;;;;;7.95;4.63;;;;;;;;;;4930925;29;20043;-57
2024/01/17 09:27:20;;;;;;;7.00;3.47;;;;;;;;;;4927361;29;20636;-54
2024/01/17 09:29:45;;;;;;;4.68;3.38;;;;;;;;;;4939973;29;20079;-53
2024/01/17 09:32:12;;;;;;;7.18;3.50;;;;;;;;;;4933203;28;20056;-54
2024/01/17 09:34:38;;;;;;;4.75;3.42;;;;;;;;;;4930387;29;20039;-56
2024/01/17 09:37:04;;;;;;;6.22;2.90;;;;;;;;;;4938294;29;20039;-55
2024/01/17 09:39:30;;;;;;;5.40;3.20;;;;;;;;;;4939310;29;20055;-56
2024/01/17 09:42:02;;;;;;;4.32;3.75;;;;;;;;;;4934781;29;20039;-55
2024/01/17 09:44:28;;;;;;;6.05;3.15;;;;;;;;;;4932098;29;20039;-56
2024/01/17 09:46:58;;;;;;;5.38;3.50;;;;;;;;;;4936511;29;20402;-57
2024/01/17 09:49:23;;;;;;;5.95;4.18;;;;;;;;;;4936751;29;20409;-55
2024/01/17 09:51:50;;;;;;;5.20;4.10;;;;;;;;;;4933416;29;20117;-55
2024/01/17 09:54:17;;;;;;;6.15;3.45;;;;;;;;;;4937408;29;20050;-57
2024/01/17 09:56:46;;;;;;;7.45;3.95;;;;;;;;;;4941005;28;20115;-56
2024/01/17 09:59:17;;;;;;;7.95;4.50;;;;;;;;;;4937429;29;20035;-55
2024/01/17 10:01:43;;;;;;;9.00;4.63;;;;;;;;;;4937235;29;20043;-55
2024/01/17 10:04:11;;;;;;;7.97;3.40;;;;;;;;;;4931565;29;20032;-57
2024/01/17 10:06:39;;;;;;;5.70;4.32;;;;;;;;;;4931838;29;20020;-56
2024/01/17 10:09:06;;;;;;;6.10;3.30;;;;;;;;;;4933583;29;20047;-55
2024/01/17 10:11:32;;;;;;;6.53;3.22;;;;;;;;;;4940243;29;20027;-57
2024/01/17 10:13:57;;;;;;;7.05;3.72;;;;;;;;;;4940614;29;20079;-55
2024/01/17 10:16:25;;;;;;;5.25;3.28;;;;;;;;;;4940449;29;20055;-57
2024/01/17 10:18:51;;;;;;;7.60;2.97;;;;;;;;;;4938587;29;20034;-57
2024/01/17 10:21:17;;;;;;;6.72;3.90;;;;;;;;;;4937362;29;20035;-55
2024/01/17 10:23:42;;;;;;;6.80;3.28;;;;;;;;;;4934319;29;20042;-56
2024/01/17 10:26:09;;;;;;;7.57;4.15;;;;;;;;;;4935922;29;20678;-57
2024/01/17 10:28:34;;;;;;;7.18;3.40;;;;;;;;;;4934411;29;20035;-56
2024/01/17 10:31:02;;;;;;;10.45;5.50;;;;;;;;;;4935144;29;20027;-57
2024/01/17 10:33:28;;;;;;;8.15;5.25;;;;;;;;;;4933518;29;20515;-56
2024/01/17 10:35:53;;;;;;;9.38;3.35;;;;;;;;;;4934459;29;20024;-55
2024/01/17 10:38:20;;;;;;;10.45;4.30;;;;;;;;;;4933954;29;20039;-55
2024/01/17 10:40:45;;;;;;;5.90;4.30;;;;;;;;;;4937053;29;20040;-57
2024/01/17 10:43:13;;;;;;;5.13;3.63;;;;;;;;;;4934977;29;20086;-56
2024/01/17 10:45:43;;;;;;;9.00;4.60;;;;;;;;;;4934246;29;20036;-55
2024/01/17 10:48:09;;;;;;;4.95;2.95;;;;;;;;;;4932573;29;20068;-56
2024/01/17 10:50:35;;;;;;;5.90;3.92;;;;;;;;;;4934853;29;20043;-56
2024/01/17 10:53:05;;;;;;;6.43;2.90;;;;;;;;;;4935617;29;20108;-54
2024/01/17 10:55:35;;;;;;;5.75;4.45;;;;;;;;;;4938007;29;20074;-54
2024/01/17 10:58:06;;;;;;;6.78;3.05;;;;;;;;;;4934583;28;20533;-57
2024/01/17 11:00:35;;;;;;;7.45;3.20;;;;;;;;;;4935807;29;20031;-56
2024/01/17 11:03:08;;;;;;;6.80;2.97;;;;;;;;;;4933694;29;20036;-57
2024/01/17 11:05:42;;;;;;;9.30;3.58;;;;;;;;;;4930621;29;20032;-55
2024/01/17 11:08:08;;;;;;;11.55;2.65;;;;;;;;;;4939377;29;20032;-57
2024/01/17 11:10:34;;;;;;;8.95;2.72;;;;;;;;;;4933965;29;20034;-55
2024/01/17 11:13:00;;;;;;;9.57;3.97;;;;;;;;;;4936487;29;20066;-56
2024/01/17 11:15:26;;;;;;;9.57;3.22;;;;;;;;;;4934162;29;20510;-55
2024/01/17 11:17:54;;;;;;;8.15;2.53;;;;;;;;;;4933300;29;20048;-56
2024/01/17 11:20:19;;;;;;;12.02;3.00;;;;;;;;;;4936511;29;20036;-56
2024/01/17 11:22:48;;;;;;;6.88;2.53;;;;;;;;;;4935228;29;20068;-57
2024/01/17 11:25:23;;;;;;;10.45;3.35;;;;;;;;;;4931888;29;20032;-56
2024/01/17 11:27:57;;;;;;;;;;;;;;;;;;4932247;29;20462;-56
2024/01/17 11:30:36;;;;;;;5.90;1.92;;;;;;;;;;4939183;29;20388;-54
2024/01/17 11:33:08;;;;;;;9.45;2.13;;;;;;;;;;4939517;29;20122;-56
2024/01/17 11:35:42;;;;;;;6.50;1.88;;;;;;;;;;4942630;29;20039;-57
2024/01/17 11:38:12;;;;;;;9.88;2.80;;;;;;;;;;4934114;29;20051;-56
2024/01/17 11:40:40;;;;;;;8.85;1.90;;;;;;;;;;4935967;29;20032;-55
2024/01/17 11:43:07;;;;;;;6.10;2.08;;;;;;;;;;4933802;29;20035;-55
2024/01/17 11:45:33;;;;;;;8.38;3.45;;;;;;;;;;4936051;29;20036;-58
2024/01/17 11:48:11;;;;;;;14.23;3.20;;;;;;;;;;4931769;29;20127;-56
2024/01/17 11:50:37;;;;;;;7.05;2.20;;;;;;;;;;4936413;29;20027;-58
2024/01/17 11:53:03;;;;;;;9.02;2.15;;;;;;;;;;4930793;29;20075;-57
2024/01/17 11:55:32;;;;;;;10.65;2.60;;;;;;;;;;4932328;29;20027;-55
2024/01/17 11:58:00;;;;;;;9.40;3.33;;;;;;;;;;4931170;29;20501;-58
2024/01/17 12:00:27;;;;;;;10.73;2.75;;;;;;;;;;4929013;29;20038;-54
2024/01/17 12:02:54;;;;;;;11.70;3.72;;;;;;;;;;4932610;29;20510;-57
2024/01/17 12:05:20;;;;;;;9.40;2.78;;;;;;;;;;4931667;29;20102;-55
2024/01/17 12:07:49;;;;;;;8.93;2.65;;;;;;;;;;4934686;29;20070;-57
2024/01/17 12:10:15;;;;;;;11.77;3.55;;;;;;;;;;4933488;29;20552;-56
2024/01/17 12:12:42;;;;;;;9.00;2.50;;;;;;;;;;4931389;29;20048;-55
2024/01/17 12:15:11;;;;;;;11.73;3.80;;;;;;;;;;4934979;29;20060;-54
2024/01/17 12:17:37;;;;;;;;;;;;;;;;;;4934232;29;20048;-54
2024/01/17 12:20:05;;;;;;;11.15;3.33;;;;;;;;;;4936321;29;19914;-53
2024/01/17 12:22:31;;;;;;;12.75;3.58;;;;;;;;;;4937362;29;20170;-53
2024/01/17 12:24:56;;;;;;;14.90;4.18;;;;;;;;;;4936920;29;20047;-58
2024/01/17 12:27:22;;;;;;;9.00;3.80;;;;;;;;;;4937432;29;20139;-56
2024/01/17 12:29:50;;;;;;;12.05;3.38;;;;;;;;;;4937282;29;20079;-59
2024/01/17 12:32:17;;;;;;;13.45;3.30;;;;;;;;;;4935212;29;20039;-58
2024/01/17 12:34:42;;;;;;;9.18;2.60;;;;;;;;;;4936951;29;20074;-56
2024/01/17 12:37:07;;;;;;;8.35;2.33;;;;;;;;;;4938172;29;20043;-57
2024/01/17 12:39:36;;;;;;;13.60;3.42;;;;;;;;;;4934507;29;20028;-57
2024/01/17 12:42:02;;;;;;;;;;;;;;;;;;4936292;29;20040;-54
2024/01/17 12:44:29;;;;;;;19.27;4.75;;;;;;;;;;4937441;29;20441;-58
2024/01/17 12:46:55;;;;;;;10.75;4.28;;;;;;;;;;4932135;29;20048;-58
2024/01/17 12:49:21;;;;;;;16.58;4.95;;;;;;;;;;4930039;29;20059;-57
2024/01/17 12:51:47;;;;;;;12.30;4.28;;;;;;;;;;4929116;29;20494;-58
2024/01/17 12:54:17;;;;;;;13.32;4.03;;;;;;;;;;4932242;29;20098;-59
2024/01/17 12:56:42;;;;;;;8.30;2.75;;;;;;;;;;4938005;29;20504;-56
2024/01/17 12:59:08;;;;;;;10.15;3.97;;;;;;;;;;4934532;29;20095;-57
2024/01/17 13:01:40;;;;;;;10.40;3.80;;;;;;;;;;4934111;29;20383;-55
2024/01/17 13:04:07;;;;;;;12.75;2.58;;;;;;;;;;4933428;29;20504;-58
2024/01/17 13:06:50;;;;;;;11.13;4.15;;;;;;;;;;4936868;29;20038;-57
2024/01/17 13:09:17;;;;;;;12.07;3.92;;;;;;;;;;4931922;29;20039;-57
2024/01/17 13:12:05;;;;;;;8.90;2.85;;;;;;;;;;4942283;29;20079;-59
2024/01/17 13:14:32;;;;;;;12.30;3.88;;;;;;;;;;4937471;29;20433;-58
2024/01/17 13:16:58;;;;;;;7.45;3.03;;;;;;;;;;4933279;29;20051;-58
2024/01/17 13:19:24;;;;;;;15.02;4.03;;;;;;;;;;4938943;29;20042;-57
2024/01/17 13:21:49;;;;;;;8.50;3.42;;;;;;;;;;4945954;28;20043;-58
2024/01/17 13:24:16;;;;;;;9.30;2.83;;;;;;;;;;4938992;28;20063;-55
2024/01/17 13:26:43;;;;;;;11.27;2.58;;;;;;;;;;4935911;29;20196;-57
2024/01/17 13:29:12;;;;;;;10.85;4.30;;;;;;;;;;4938842;29;20027;-58
2024/01/17 13:31:37;;;;;;;10.70;4.47;;;;;;;;;;4934363;29;20039;-53
2024/01/17 13:34:06;;;;;;;16.52;3.78;;;;;;;;;;4934933;29;20043;-56
2024/01/17 13:36:32;;;;;;;16.88;7.95;;;;;;;;;;4931332;29;20027;-59
2024/01/17 13:38:58;;;;;;;10.98;3.83;;;;;;;;;;4940182;29;20118;-55
2024/01/17 13:41:23;;;;;;;13.80;3.45;;;;;;;;;;4937096;29;20063;-58
2024/01/17 13:43:49;;;;;;;11.40;3.15;;;;;;;;;;4937950;29;20095;-56
2024/01/17 13:46:15;;;;;;;14.48;3.55;;;;;;;;;;4938353;29;20031;-58
2024/01/17 13:48:40;;;;;;;14.60;5.70;;;;;;;;;;4942961;28;20118;-58
2024/01/17 13:51:06;;;;;;;16.77;3.75;;;;;;;;;;4942990;29;20027;-57
2024/01/17 13:53:32;;;;;;;11.88;4.13;;;;;;;;;;4935784;29;20556;-59
2024/01/17 13:55:59;;;;;;;15.85;4.00;;;;;;;;;;4938447;29;20031;-59
2024/01/17 13:58:27;;;;;;;11.93;2.97;;;;;;;;;;4936836;29;20044;-59
2024/01/17 14:00:57;;;;;;;14.05;3.55;;;;;;;;;;4932455;29;20031;-58
2024/01/17 14:03:23;;;;;;;13.55;2.95;;;;;;;;;;4939157;29;20095;-59
2024/01/17 14:05:49;;;;;;;12.65;4.38;;;;;;;;;;4938059;29;20032;-58
2024/01/17 14:08:14;;;;;;;13.77;5.65;;;;;;;;;;4936819;29;20095;-59
2024/01/17 14:10:39;;;;;;;15.05;4.38;;;;;;;;;;4933131;29;20115;-60
2024/01/17 14:13:06;;;;;;;9.05;3.75;;;;;;;;;;4936996;29;20066;-58
2024/01/17 14:15:32;;;;;;;13.05;3.97;;;;;;;;;;4930732;29;20043;-59
2024/01/17 14:17:59;;;;;;;22.40;5.18;;;;;;;;;;4936140;29;20397;-59
2024/01/17 14:20:25;;;;;;;11.23;3.15;;;;;;;;;;4933671;29;20927;-59
2024/01/17 14:22:51;;;;;;;12.18;3.17;;;;;;;;;;4939464;29;20036;-59
2024/01/17 14:25:17;;;;;;;15.13;3.95;;;;;;;;;;4937788;29;20040;-59
2024/01/17 14:27:43;;;;;;;13.38;3.80;;;;;;;;;;4937024;29;20047;-58
2024/01/17 14:30:12;;;;;;;12.57;3.63;;;;;;;;;;4940065;29;20024;-58
2024/01/17 14:32:41;;;;;;;9.30;4.57;;;;;;;;;;4930630;29;20044;-58
2024/01/17 14:35:09;;;;;;;12.32;3.72;;;;;;;;;;4937813;29;20453;-59